createdAt,value
2023-01-13T00:00:09.635Z,83.45
2023-01-13T00:05:32.823Z,83.57
2023-01-13T00:10:36.328Z,83.69
2023-01-13T00:15:39.366Z,83.75
2023-01-13T00:20:42.647Z,83.81
2023-01-13T00:25:46.263Z,83.90
2023-01-13T00:30:49.534Z,83.98
2023-01-13T00:36:00.664Z,84.19
2023-01-13T00:41:09.994Z,84.48
2023-01-13T00:46:15.401Z,84.85
2023-01-13T00:51:21.341Z,85.31
2023-01-13T00:56:39.805Z,85.42
2023-01-13T01:01:43.929Z,85.66
2023-01-13T01:06:47.254Z,85.84
2023-01-13T01:11:50.359Z,85.91
2023-01-13T01:16:54.662Z,85.88
2023-01-13T01:21:58.417Z,86.03
2023-01-13T01:27:02.133Z,86.16
2023-01-13T01:32:05.752Z,86.31
2023-01-13T01:37:08.959Z,86.43
2023-01-13T01:42:35.737Z,86.35
2023-01-13T01:47:40.155Z,86.39
2023-01-13T01:52:47.153Z,86.51
2023-01-13T01:57:55.087Z,86.71
2023-01-13T02:02:59.925Z,86.76
2023-01-13T02:08:04.160Z,87.87
2023-01-13T02:13:10.838Z,87.76
2023-01-13T02:18:36.065Z,88.06
2023-01-13T02:23:57.903Z,88.25
2023-01-13T02:29:34.087Z,88.58
2023-01-13T02:34:42.215Z,88.72
2023-01-13T02:40:02.827Z,89.26
2023-01-13T02:45:26.254Z,89.87
2023-01-13T02:50:40.355Z,90.05
2023-01-13T02:55:48.703Z,91.00
2023-01-13T03:00:52.072Z,90.64
2023-01-13T03:06:23.280Z,90.75
2023-01-13T03:11:33.931Z,90.51
2023-01-13T03:16:53.206Z,90.97
2023-01-13T03:22:22.676Z,91.42
2023-01-13T03:27:39.391Z,91.05
2023-01-13T03:32:47.100Z,91.24
2023-01-13T03:37:57.287Z,91.47
2023-01-13T03:43:29.461Z,91.25
2023-01-13T03:48:36.010Z,91.33
2023-01-13T03:53:47.860Z,91.45
2023-01-13T03:58:53.469Z,91.35
2023-01-13T04:04:10.533Z,91.52
2023-01-13T04:09:41.719Z,91.84
2023-01-13T04:14:46.514Z,91.86
2023-01-13T04:19:49.572Z,92.01
2023-01-13T04:24:52.786Z,92.13
2023-01-13T04:29:56.296Z,92.02
2023-01-13T04:34:59.510Z,92.00
2023-01-13T04:40:02.708Z,91.99
2023-01-13T04:45:06.638Z,92.06
2023-01-13T04:50:11.074Z,92.17
2023-01-13T04:55:14.482Z,92.43
2023-01-13T05:00:20.353Z,92.42
2023-01-13T05:05:23.665Z,92.33
2023-01-13T05:10:27.473Z,92.34
2023-01-13T05:15:49.692Z,92.41
2023-01-13T05:20:53.055Z,92.41
2023-01-13T05:25:56.359Z,92.43
2023-01-13T05:31:00.970Z,92.46
2023-01-13T05:36:04.516Z,92.57
2023-01-13T05:41:27.494Z,92.55
2023-01-13T05:46:30.743Z,92.61
2023-01-13T05:51:33.909Z,92.63
2023-01-13T05:56:37.115Z,92.54
2023-01-13T06:01:40.323Z,92.59
2023-01-13T06:06:45.078Z,92.65
2023-01-13T06:11:48.682Z,92.65
2023-01-13T06:16:51.894Z,92.75
2023-01-13T06:21:58.477Z,92.79
2023-01-13T06:27:01.686Z,92.70
2023-01-13T06:32:13.391Z,92.81
2023-01-13T06:37:21.789Z,92.80
2023-01-13T06:42:50.123Z,92.85
2023-01-13T06:47:54.967Z,92.90
2023-01-13T06:52:58.684Z,92.99
2023-01-13T06:58:02.111Z,93.01
2023-01-13T07:03:16.802Z,93.06
2023-01-13T07:08:21.075Z,93.13
2023-01-13T07:13:43.167Z,93.15
2023-01-13T07:18:46.365Z,93.18
2023-01-13T07:23:49.572Z,93.23
2023-01-13T07:28:52.783Z,93.21
2023-01-13T07:33:56.302Z,93.24
2023-01-13T07:38:59.408Z,93.31
2023-01-13T07:44:05.379Z,93.22
2023-01-13T07:49:10.127Z,93.23
2023-01-13T07:54:13.223Z,93.22
2023-01-13T07:59:16.635Z,93.27
2023-01-13T08:04:20.255Z,93.32
2023-01-13T08:09:23.583Z,93.36
2023-01-13T08:14:26.669Z,93.37
2023-01-13T08:19:29.879Z,93.30
2023-01-13T08:24:33.083Z,93.36
2023-01-13T08:29:36.602Z,93.37
2023-01-13T08:34:39.703Z,93.39
2023-01-13T08:39:43.015Z,93.37
2023-01-13T08:44:46.567Z,93.35
2023-01-13T08:49:49.943Z,93.35
2023-01-13T08:54:53.264Z,93.30
2023-01-13T08:59:56.981Z,93.32
2023-01-13T09:05:04.687Z,93.31
2023-01-13T09:10:09.879Z,93.32
2023-01-13T09:15:13.667Z,93.31
2023-01-13T09:20:17.279Z,93.25
2023-01-13T09:25:20.599Z,93.21
2023-01-13T09:30:25.062Z,93.18
2023-01-13T09:35:28.435Z,93.11
2023-01-13T09:40:31.954Z,93.05
2023-01-13T09:46:34.328Z,93.02
2023-01-13T09:51:43.158Z,93.02
2023-01-13T09:56:46.599Z,93.00
2023-01-13T10:02:01.071Z,92.96
2023-01-13T10:07:06.876Z,92.90
2023-01-13T10:12:38.007Z,92.86
2023-01-13T10:18:01.286Z,92.80
2023-01-13T10:23:39.211Z,92.69
2023-01-13T10:28:42.313Z,92.59
2023-01-13T10:33:45.417Z,92.58
2023-01-13T10:38:50.376Z,92.56
2023-01-13T10:44:14.881Z,92.51
2023-01-13T10:49:34.036Z,92.47
2023-01-13T10:54:52.230Z,92.46
2023-01-13T10:59:56.542Z,92.40
2023-01-13T11:05:28.836Z,92.36
2023-01-13T11:10:33.560Z,92.34
2023-01-13T11:15:45.978Z,92.31
2023-01-13T11:20:52.701Z,92.29
2023-01-13T11:26:04.008Z,92.26
2023-01-13T11:31:33.571Z,92.20
2023-01-13T11:36:39.818Z,92.09
2023-01-13T11:42:13.937Z,92.03
2023-01-13T11:47:23.877Z,92.01
2023-01-13T11:52:31.608Z,91.97
2023-01-13T11:58:17.429Z,91.92
2023-01-13T12:03:44.180Z,91.84
2023-01-13T12:08:53.495Z,91.80
2023-01-13T12:14:41.312Z,91.84
2023-01-13T12:19:49.611Z,91.88
2023-01-13T12:25:15.159Z,91.89
2023-01-13T12:30:21.970Z,91.83
2023-01-13T12:35:43.507Z,91.82
2023-01-13T12:41:02.151Z,91.76
2023-01-13T12:46:25.824Z,91.73
2023-01-13T12:51:33.957Z,91.73
2023-01-13T12:56:45.142Z,91.72
2023-01-13T13:02:13.015Z,91.71
2023-01-13T13:07:32.632Z,91.69
2023-01-13T13:13:01.017Z,91.68
2023-01-13T13:18:20.938Z,91.69
2023-01-13T13:23:33.037Z,91.65
2023-01-13T13:28:42.799Z,91.60
2023-01-13T13:34:01.778Z,91.56
2023-01-13T13:39:41.850Z,91.53
2023-01-13T13:45:08.915Z,91.50
2023-01-13T13:50:22.697Z,91.42
2023-01-13T13:55:29.639Z,91.37
2023-01-13T14:00:38.491Z,91.36
2023-01-13T14:05:53.826Z,91.36
2023-01-13T14:10:57.479Z,91.42
2023-01-13T14:16:03.583Z,91.46
2023-01-13T14:21:29.913Z,91.51
2023-01-13T14:26:33.094Z,91.57
2023-01-13T14:31:39.444Z,91.56
2023-01-13T14:36:43.914Z,91.66
2023-01-13T14:41:49.773Z,91.61
2023-01-13T14:46:56.176Z,91.93
2023-01-13T14:52:23.523Z,92.05
2023-01-13T14:57:29.102Z,92.21
2023-01-13T15:02:34.701Z,92.02
2023-01-13T15:07:38.259Z,91.96
2023-01-13T15:12:41.362Z,91.93
2023-01-13T15:17:47.240Z,91.85
2023-01-13T15:22:52.185Z,92.13
2023-01-13T15:27:55.494Z,92.08
2023-01-13T15:32:59.975Z,92.36
2023-01-13T15:38:15.525Z,92.43
2023-01-13T15:43:42.809Z,92.24
2023-01-13T15:48:46.315Z,92.20
2023-01-13T15:53:56.381Z,92.18
2023-01-13T15:58:59.895Z,92.25
2023-01-13T16:04:03.413Z,92.30
2023-01-13T16:09:07.467Z,92.25
2023-01-13T16:14:10.858Z,92.30
2023-01-13T16:19:14.180Z,92.33
2023-01-13T16:24:17.393Z,92.47
2023-01-13T16:29:20.604Z,92.63
2023-01-13T16:34:23.954Z,92.63
2023-01-13T16:39:29.091Z,92.60
2023-01-13T16:44:33.178Z,92.44
2023-01-13T16:49:36.344Z,92.34
2023-01-13T16:54:39.448Z,92.37
2023-01-13T16:59:42.933Z,92.31
2023-01-13T17:04:46.589Z,92.29
2023-01-13T17:09:50.314Z,92.28
2023-01-13T17:14:53.830Z,92.31
2023-01-13T17:19:57.944Z,92.31
2023-01-13T17:25:01.884Z,92.24
2023-01-13T17:30:09.035Z,92.19
2023-01-13T17:35:15.368Z,92.12
2023-01-13T17:40:19.711Z,92.09
2023-01-13T17:45:24.011Z,92.09
2023-01-13T17:50:31.550Z,92.10
2023-01-13T17:55:34.952Z,92.06
2023-01-13T18:00:38.293Z,92.00
2023-01-13T18:05:41.570Z,91.92
2023-01-13T18:10:44.876Z,91.91
2023-01-13T18:15:47.982Z,91.90
2023-01-13T18:21:17.615Z,91.91
2023-01-13T18:26:40.380Z,91.98
2023-01-13T18:31:44.705Z,92.03
2023-01-13T18:36:48.239Z,92.02
2023-01-13T18:42:10.599Z,92.01
2023-01-13T18:47:13.994Z,91.96
2023-01-13T18:52:17.407Z,91.91
2023-01-13T18:57:21.863Z,91.81
2023-01-13T19:02:27.010Z,91.86
2023-01-13T19:07:32.520Z,91.96
2023-01-13T19:12:36.487Z,91.85
2023-01-13T19:17:40.102Z,91.85
2023-01-13T19:22:44.039Z,91.88
2023-01-13T19:27:48.260Z,91.92
2023-01-13T19:32:51.877Z,91.99
2023-01-13T19:37:55.395Z,91.98
2023-01-13T19:43:18.366Z,91.96
2023-01-13T19:48:22.499Z,91.97
2023-01-13T19:53:27.136Z,91.86
2023-01-13T19:58:30.861Z,91.65
2023-01-13T20:03:38.164Z,91.53
2023-01-13T20:08:42.293Z,91.46
2023-01-13T20:13:46.444Z,91.40
2023-01-13T20:18:51.768Z,91.35
2023-01-13T20:23:55.500Z,91.43
2023-01-13T20:28:59.118Z,91.51
2023-01-13T20:34:02.635Z,91.69
2023-01-13T20:39:09.203Z,91.80
2023-01-13T20:44:13.043Z,91.77
2023-01-13T20:49:16.765Z,91.67
2023-01-13T20:54:21.104Z,91.70
2023-01-13T20:59:24.563Z,91.65
2023-01-13T21:04:29.528Z,91.64
2023-01-13T21:09:32.772Z,91.89
2023-01-13T21:14:55.230Z,92.00
2023-01-13T21:19:59.156Z,91.75
2023-01-13T21:25:06.254Z,91.69
2023-01-13T21:30:15.852Z,91.88
2023-01-13T21:35:19.582Z,92.00
2023-01-13T21:40:22.740Z,91.89
2023-01-13T21:45:46.465Z,91.95
2023-01-13T21:50:49.944Z,92.11
2023-01-13T21:55:53.262Z,92.22
2023-01-13T22:00:56.811Z,92.20
2023-01-13T22:06:00.256Z,92.27
2023-01-13T22:11:03.911Z,92.20
2023-01-13T22:16:09.533Z,92.22
2023-01-13T22:21:12.884Z,92.14
2023-01-13T22:26:16.254Z,92.06
2023-01-13T22:31:23.959Z,92.15
2023-01-13T22:36:27.121Z,92.11
2023-01-13T22:41:30.933Z,92.14
2023-01-13T22:46:34.084Z,92.13
2023-01-13T22:51:37.453Z,92.15
2023-01-13T22:56:41.283Z,92.11
2023-01-13T23:01:44.492Z,92.01
2023-01-13T23:06:47.593Z,92.01
2023-01-13T23:11:51.720Z,92.01
2023-01-13T23:16:54.996Z,92.08
2023-01-13T23:21:58.954Z,92.07
2023-01-13T23:27:02.268Z,92.08
2023-01-13T23:32:06.299Z,92.17
2023-01-13T23:37:09.620Z,92.17
2023-01-13T23:42:12.878Z,92.26
2023-01-13T23:47:16.228Z,92.35
2023-01-13T23:52:19.228Z,92.40
2023-01-13T23:57:22.743Z,92.33
